createdAt,value
2018-12-13T05:03:26.333Z,7.00
2018-12-13T05:04:26.307Z,4.30
2018-12-13T05:05:26.295Z,3.90
2018-12-13T05:06:26.282Z,4.30
2018-12-13T05:07:26.273Z,4.00
2018-12-13T05:08:26.288Z,4.10
2018-12-13T05:09:26.251Z,4.00
2018-12-13T05:10:26.247Z,4.00
2018-12-13T05:11:26.230Z,4.70
2018-12-13T05:12:26.218Z,4.40
2018-12-13T05:13:26.238Z,4.30
2018-12-13T05:14:26.199Z,4.30
2018-12-13T05:15:26.187Z,4.30
2018-12-13T05:16:26.179Z,4.10
2018-12-13T05:17:26.169Z,3.90
2018-12-13T05:18:26.187Z,3.60
2018-12-13T05:19:26.155Z,3.80
2018-12-13T05:20:26.134Z,4.20
2018-12-13T05:21:26.127Z,3.90
2018-12-13T05:22:26.114Z,4.20
2018-12-13T05:23:26.121Z,4.20
2018-12-13T05:24:26.101Z,4.40
2018-12-13T05:25:33.196Z,4.40
2018-12-13T05:26:26.071Z,4.30
2018-12-13T05:27:26.061Z,4.00
2018-12-13T05:28:26.068Z,4.50
2018-12-13T05:29:26.044Z,4.60
2018-12-13T05:30:26.029Z,4.00
2018-12-13T05:31:26.021Z,4.30
2018-12-13T05:32:26.012Z,4.00
2018-12-13T05:33:26.016Z,4.10
2018-12-13T05:34:25.988Z,4.90
2018-12-13T05:35:26.099Z,4.40
2018-12-13T05:36:25.967Z,3.70
2018-12-13T05:37:25.963Z,4.70
2018-12-13T05:38:25.972Z,4.60
2018-12-13T05:39:25.941Z,4.30
2018-12-13T05:40:25.923Z,4.40
2018-12-13T05:41:25.927Z,4.40
2018-12-13T05:42:25.922Z,4.00
2018-12-13T05:43:25.986Z,4.20
2018-12-13T05:44:25.879Z,4.10
2018-12-13T05:45:25.869Z,4.50
2018-12-13T05:46:25.869Z,4.70
2018-12-13T05:47:25.853Z,4.70
2018-12-13T05:48:25.858Z,4.60
2018-12-13T05:49:25.827Z,4.40
2018-12-13T05:50:25.816Z,4.40
2018-12-13T05:51:25.807Z,5.00
2018-12-13T05:52:25.820Z,4.70
2018-12-13T05:53:25.815Z,4.80
2018-12-13T05:54:25.774Z,4.90
2018-12-13T05:55:25.767Z,4.90
2018-12-13T05:56:25.753Z,4.40
2018-12-13T05:57:25.741Z,4.70
2018-12-13T05:58:25.743Z,4.50
2018-12-13T05:59:25.737Z,4.40
2018-12-13T06:00:25.714Z,4.70
2018-12-13T06:01:25.698Z,4.50
2018-12-13T06:02:25.689Z,5.10
2018-12-13T06:03:25.678Z,5.30
2018-12-13T06:04:25.694Z,4.80
2018-12-13T06:05:25.671Z,4.90
2018-12-13T06:06:25.650Z,4.90
2018-12-13T06:07:25.640Z,4.60
2018-12-13T06:08:25.624Z,4.90
2018-12-13T06:09:25.632Z,4.40
2018-12-13T06:10:25.607Z,5.00
2018-12-13T06:11:25.597Z,4.60
2018-12-13T06:12:25.594Z,4.60
2018-12-13T06:13:25.577Z,4.90
2018-12-13T06:14:25.579Z,4.60
2018-12-13T06:15:25.551Z,4.60
2018-12-13T06:16:25.540Z,4.40
2018-12-13T06:17:25.535Z,4.30
2018-12-13T06:18:25.533Z,4.40
2018-12-13T06:19:26.827Z,5.10
2018-12-13T06:20:25.507Z,5.30
2018-12-13T06:21:25.492Z,4.90
2018-12-13T06:22:25.484Z,5.00
2018-12-13T06:23:25.466Z,4.50
2018-12-13T06:24:25.479Z,5.00
2018-12-13T06:25:25.458Z,4.60
2018-12-13T06:26:25.433Z,4.80
2018-12-13T06:27:25.429Z,5.10
2018-12-13T06:28:25.423Z,4.80
2018-12-13T06:29:25.427Z,4.60
2018-12-13T06:30:25.407Z,4.60
2018-12-13T06:31:25.383Z,4.80
2018-12-13T06:32:25.377Z,4.30
2018-12-13T06:33:25.360Z,4.80
2018-12-13T06:34:25.369Z,4.20
2018-12-13T06:35:25.340Z,4.30
2018-12-13T06:36:25.329Z,5.00
2018-12-13T06:37:25.320Z,4.60
2018-12-13T06:38:25.319Z,4.90
2018-12-13T06:39:25.337Z,3.90
2018-12-13T06:40:25.290Z,4.20
2018-12-13T06:41:25.283Z,3.80
2018-12-13T06:42:25.274Z,4.00
2018-12-13T06:43:25.261Z,4.10
2018-12-13T06:44:25.269Z,5.40
2018-12-13T06:45:25.236Z,4.30
2018-12-13T06:46:25.254Z,27.60
2018-12-13T06:47:25.286Z,47.90
2018-12-13T06:48:25.209Z,40.40
2018-12-13T06:49:25.213Z,36.40
2018-12-13T06:50:25.181Z,11.60
2018-12-13T06:51:25.172Z,5.70
2018-12-13T06:52:25.159Z,4.50
2018-12-13T06:53:25.160Z,4.10
2018-12-13T06:54:25.158Z,4.50
2018-12-13T06:55:25.126Z,4.30
2018-12-13T06:56:25.117Z,4.10
2018-12-13T06:57:25.105Z,4.00
2018-12-13T06:58:25.096Z,3.60
2018-12-13T06:59:25.121Z,3.90
2018-12-13T07:00:25.075Z,3.90
2018-12-13T07:01:25.071Z,4.10
2018-12-13T07:02:25.051Z,3.80
2018-12-13T07:03:25.040Z,4.00
2018-12-13T07:04:25.052Z,4.00
2018-12-13T07:05:25.034Z,4.00
2018-12-13T07:06:25.009Z,4.10
2018-12-13T07:07:24.999Z,4.20
2018-12-13T07:08:24.988Z,4.00
2018-12-13T07:09:24.996Z,4.10
2018-12-13T07:10:24.966Z,3.80
2018-12-13T07:11:24.961Z,4.40
2018-12-13T07:12:24.949Z,4.10
2018-12-13T07:13:24.967Z,4.30
2018-12-13T07:14:24.944Z,4.10
2018-12-13T07:15:24.916Z,4.10
2018-12-13T07:16:24.902Z,4.60
2018-12-13T07:17:24.896Z,4.10
2018-12-13T07:18:24.881Z,4.30
2018-12-13T07:19:24.893Z,4.30
2018-12-13T07:20:26.221Z,3.90
2018-12-13T07:21:24.848Z,4.40
2018-12-13T07:22:24.841Z,4.30
2018-12-13T07:23:24.837Z,4.10
2018-12-13T07:24:24.850Z,4.30
2018-12-13T07:25:24.829Z,4.50
2018-12-13T07:26:24.798Z,4.10
2018-12-13T07:27:24.785Z,4.40
2018-12-13T07:28:24.789Z,4.30
2018-12-13T07:29:24.793Z,4.00
2018-12-13T07:30:24.753Z,4.30
2018-12-13T07:31:24.754Z,4.20
2018-12-13T07:32:24.731Z,5.00
2018-12-13T07:33:24.725Z,4.00
2018-12-13T07:34:24.730Z,4.60
2018-12-13T07:35:24.713Z,4.30
2018-12-13T07:36:24.697Z,4.20
2018-12-13T07:37:24.710Z,3.80
2018-12-13T07:38:24.668Z,4.60
2018-12-13T07:39:24.705Z,4.00
2018-12-13T07:40:24.647Z,4.80
2018-12-13T07:41:24.650Z,4.40
2018-12-13T07:42:24.632Z,4.50
2018-12-13T07:43:24.644Z,4.50
2018-12-13T07:44:24.632Z,4.30
2018-12-13T07:45:24.596Z,4.70
2018-12-13T07:46:24.587Z,4.90
2018-12-13T07:47:24.571Z,5.10
2018-12-13T07:48:24.565Z,4.50
2018-12-13T07:49:24.629Z,4.40
2018-12-13T07:50:24.545Z,4.60
2018-12-13T07:51:24.528Z,5.00
2018-12-13T07:52:24.519Z,4.90
2018-12-13T07:53:24.509Z,5.10
2018-12-13T07:54:24.568Z,5.20
2018-12-13T07:55:24.522Z,5.30
2018-12-13T07:56:24.484Z,5.10
2018-12-13T07:57:24.470Z,4.80
2018-12-13T07:58:24.725Z,4.80
2018-12-13T07:59:24.444Z,4.80
2018-12-13T08:00:24.464Z,5.50
2018-12-13T08:01:24.432Z,5.10
2018-12-13T08:02:24.447Z,5.20
2018-12-13T08:03:24.524Z,4.60
2018-12-13T08:04:24.392Z,4.70
2018-12-13T08:05:24.400Z,5.10
2018-12-13T08:06:24.431Z,5.10
2018-12-13T08:07:24.489Z,5.20
2018-12-13T08:08:24.350Z,4.80
2018-12-13T08:09:24.344Z,4.90
2018-12-13T08:10:24.349Z,4.60
2018-12-13T08:11:24.316Z,5.20
2018-12-13T08:12:24.349Z,5.50
2018-12-13T08:13:24.296Z,5.20
2018-12-13T08:14:24.313Z,5.10
2018-12-13T08:15:24.292Z,5.00
2018-12-13T08:16:24.265Z,5.00
2018-12-13T08:17:24.254Z,5.10
2018-12-13T08:18:24.379Z,5.10
2018-12-13T08:19:24.234Z,5.10
2018-12-13T08:20:24.292Z,4.60
2018-12-13T08:21:24.212Z,4.80
2018-12-13T08:22:24.210Z,5.10
2018-12-13T08:23:24.192Z,5.00
2018-12-13T08:24:24.177Z,5.20
2018-12-13T08:25:24.191Z,5.20
2018-12-13T08:26:24.161Z,4.80
2018-12-13T08:27:24.148Z,5.20
2018-12-13T08:28:24.140Z,4.60
2018-12-13T08:29:24.122Z,5.10
2018-12-13T08:30:24.131Z,5.30
2018-12-13T08:31:24.102Z,5.10
2018-12-13T08:32:24.103Z,5.10
2018-12-13T08:33:24.082Z,4.70
2018-12-13T08:34:24.073Z,4.80
2018-12-13T08:35:24.080Z,5.10
2018-12-13T08:36:24.048Z,5.20
2018-12-13T08:37:24.062Z,5.20
2018-12-13T08:38:27.297Z,4.50
2018-12-13T08:39:24.018Z,5.10
2018-12-13T08:40:24.025Z,4.20
2018-12-13T08:41:23.997Z,4.60
2018-12-13T08:42:23.984Z,4.80
2018-12-13T08:43:23.972Z,5.10
2018-12-13T08:44:23.962Z,5.20
2018-12-13T08:45:24.422Z,5.30
2018-12-13T08:46:23.941Z,4.70
2018-12-13T08:47:23.929Z,5.10
2018-12-13T08:48:23.927Z,4.80
2018-12-13T08:49:23.921Z,4.60
2018-12-13T08:50:23.915Z,4.90
2018-12-13T08:51:23.888Z,4.60
2018-12-13T08:52:23.875Z,4.90
2018-12-13T08:53:23.865Z,5.10
2018-12-13T08:54:23.939Z,5.20
2018-12-13T08:55:23.859Z,5.40
2018-12-13T08:56:23.836Z,4.70
2018-12-13T08:57:23.827Z,5.10
2018-12-13T08:58:23.812Z,4.80
2018-12-13T08:59:23.813Z,5.30
2018-12-13T09:00:23.811Z,5.60
2018-12-13T09:01:23.783Z,5.30
2018-12-13T09:02:23.770Z,5.20
2018-12-13T09:03:23.760Z,5.40
2018-12-13T09:04:23.746Z,5.60
2018-12-13T09:05:23.763Z,5.50
2018-12-13T09:06:23.728Z,5.10
2018-12-13T09:07:23.736Z,5.10
2018-12-13T09:08:23.705Z,5.40
2018-12-13T09:09:23.693Z,4.90
2018-12-13T09:10:23.703Z,5.30
2018-12-13T09:11:23.683Z,5.20
2018-12-13T09:12:23.665Z,5.10
2018-12-13T09:13:23.660Z,4.90
2018-12-13T09:14:23.638Z,16.10
2018-12-13T09:15:23.650Z,34.40
2018-12-13T09:16:23.629Z,41.90
2018-12-13T09:17:23.610Z,16.10
2018-12-13T09:18:23.601Z,5.70
2018-12-13T09:19:23.606Z,5.00
2018-12-13T09:20:23.603Z,5.30
2018-12-13T09:21:23.570Z,5.20
2018-12-13T09:22:23.554Z,5.10
2018-12-13T09:23:23.547Z,4.80
2018-12-13T09:24:23.538Z,4.90
2018-12-13T09:25:23.546Z,4.90
2018-12-13T09:26:23.518Z,5.00
2018-12-13T09:27:23.504Z,5.30
2018-12-13T09:28:23.494Z,5.00
2018-12-13T09:29:23.483Z,4.80
2018-12-13T09:30:23.502Z,5.00
2018-12-13T09:31:23.480Z,5.10
2018-12-13T09:32:23.449Z,5.20
2018-12-13T09:33:23.437Z,5.40
2018-12-13T09:34:23.454Z,5.00
2018-12-13T09:35:24.086Z,5.60
2018-12-13T09:36:23.527Z,4.90
2018-12-13T09:37:23.394Z,4.90
2018-12-13T09:38:23.383Z,5.20
2018-12-13T09:39:23.375Z,5.30
2018-12-13T09:40:23.381Z,5.60
2018-12-13T09:41:23.372Z,4.80
2018-12-13T09:42:23.348Z,4.70
2018-12-13T09:43:23.331Z,4.90
2018-12-13T09:44:23.328Z,5.10
2018-12-13T09:45:23.312Z,22.00
2018-12-13T09:46:23.318Z,15.10
2018-12-13T09:47:23.290Z,5.40
2018-12-13T09:48:23.281Z,5.00
2018-12-13T09:49:23.283Z,5.00
2018-12-13T09:50:23.258Z,4.80
2018-12-13T09:51:23.269Z,5.00
2018-12-13T09:52:23.239Z,4.80
2018-12-13T09:53:23.256Z,4.60
2018-12-13T09:54:23.216Z,4.90
2018-12-13T09:55:23.211Z,4.90
2018-12-13T09:56:23.220Z,5.00
2018-12-13T09:57:23.186Z,5.40
2018-12-13T09:58:23.175Z,5.10
2018-12-13T09:59:24.571Z,4.70
2018-12-13T10:00:23.168Z,5.30
2018-12-13T10:01:23.178Z,4.90
2018-12-13T10:02:23.186Z,4.90
2018-12-13T10:03:23.140Z,4.80
2018-12-13T10:04:23.114Z,4.70
2018-12-13T10:05:23.102Z,4.90
2018-12-13T10:06:23.122Z,5.00
2018-12-13T10:07:23.085Z,23.90
2018-12-13T10:08:23.073Z,41.30
2018-12-13T10:09:23.060Z,14.40
2018-12-13T10:10:23.054Z,7.00
2018-12-13T10:11:23.061Z,5.30
2018-12-13T10:12:23.035Z,5.10
2018-12-13T10:13:23.080Z,4.80
2018-12-13T10:14:23.009Z,5.00
2018-12-13T10:15:22.999Z,5.30
2018-12-13T10:16:23.022Z,5.10
2018-12-13T10:17:22.987Z,4.90
2018-12-13T10:18:22.975Z,5.30
2018-12-13T10:19:22.964Z,5.10
2018-12-13T10:20:22.960Z,5.10
2018-12-13T10:21:22.954Z,4.30
2018-12-13T10:22:22.941Z,4.70
2018-12-13T10:23:22.914Z,4.80
2018-12-13T10:24:22.903Z,5.10
2018-12-13T10:25:22.902Z,4.40
2018-12-13T10:26:22.899Z,4.70
2018-12-13T10:27:22.926Z,5.30
2018-12-13T10:28:22.860Z,5.10
2018-12-13T10:29:22.862Z,4.70
2018-12-13T10:30:22.839Z,4.70
2018-12-13T10:31:22.858Z,4.30
2018-12-13T10:32:22.821Z,5.00
2018-12-13T10:33:22.806Z,5.30
2018-12-13T10:34:22.864Z,4.80
2018-12-13T10:35:22.790Z,5.00
2018-12-13T10:36:22.814Z,4.80
2018-12-13T10:37:22.765Z,5.20
2018-12-13T10:38:22.754Z,5.10
2018-12-13T10:39:22.757Z,5.00
2018-12-13T10:40:22.734Z,6.40
2018-12-13T10:41:22.753Z,20.80
2018-12-13T10:42:22.722Z,13.50
2018-12-13T10:43:22.709Z,7.70
2018-12-13T10:44:22.700Z,4.90
2018-12-13T10:45:22.682Z,5.00
2018-12-13T10:46:22.690Z,5.30
2018-12-13T10:47:22.659Z,5.50
2018-12-13T10:48:22.653Z,4.70
2018-12-13T10:49:22.652Z,4.80
2018-12-13T10:50:22.638Z,5.20
2018-12-13T10:51:22.651Z,4.70
2018-12-13T10:52:22.651Z,5.20
2018-12-13T10:53:22.596Z,5.00
2018-12-13T10:54:22.627Z,5.50
2018-12-13T10:55:22.575Z,5.20
2018-12-13T10:56:22.636Z,6.70
2018-12-13T10:57:22.550Z,15.50
2018-12-13T10:58:22.540Z,17.20
2018-12-13T10:59:22.535Z,6.00
2018-12-13T11:00:22.529Z,5.30
2018-12-13T11:01:22.526Z,5.50
2018-12-13T11:02:22.518Z,4.90
2018-12-13T11:03:22.485Z,4.80
2018-12-13T11:04:22.475Z,4.90
2018-12-13T11:05:22.473Z,5.00
2018-12-13T11:06:22.492Z,5.20
2018-12-13T11:07:22.447Z,5.00
2018-12-13T11:08:22.452Z,5.10
2018-12-13T11:09:22.427Z,5.10
2018-12-13T11:10:25.357Z,5.40
2018-12-13T11:11:22.421Z,5.20
2018-12-13T11:12:22.394Z,5.60
2018-12-13T11:13:22.390Z,5.20
2018-12-13T11:14:22.381Z,5.20
2018-12-13T11:15:22.399Z,5.60
2018-12-13T11:16:22.379Z,5.00
2018-12-13T11:17:22.342Z,5.80
2018-12-13T11:18:22.331Z,5.30
2018-12-13T11:19:22.327Z,5.30
2018-12-13T11:20:22.332Z,5.70
2018-12-13T11:21:22.331Z,5.40
2018-12-13T11:22:22.293Z,5.80
2018-12-13T11:23:22.281Z,5.30
2018-12-13T11:24:22.269Z,4.90
2018-12-13T11:25:22.262Z,5.70
2018-12-13T11:26:22.256Z,6.00
2018-12-13T11:27:22.264Z,5.70
2018-12-13T11:28:22.229Z,5.60
2018-12-13T11:29:22.217Z,5.40
2018-12-13T11:30:22.212Z,5.50
2018-12-13T11:31:22.217Z,5.30
2018-12-13T11:32:22.208Z,5.70
2018-12-13T11:33:22.182Z,6.00
2018-12-13T11:34:22.169Z,5.30
2018-12-13T11:35:22.155Z,5.50
2018-12-13T11:36:22.148Z,5.60
2018-12-13T11:37:22.163Z,5.40
2018-12-13T11:38:22.157Z,5.50
2018-12-13T11:39:22.111Z,5.80
2018-12-13T11:40:22.104Z,5.80
2018-12-13T11:41:22.092Z,5.10
2018-12-13T11:42:22.097Z,5.30
2018-12-13T11:43:22.071Z,5.10
2018-12-13T11:44:22.062Z,5.70
2018-12-13T11:45:22.054Z,5.70
2018-12-13T11:46:22.045Z,4.70
2018-12-13T11:47:22.400Z,5.30
2018-12-13T11:48:22.033Z,5.10
2018-12-13T11:49:22.009Z,5.70
2018-12-13T11:50:21.995Z,4.80
2018-12-13T11:51:22.003Z,4.60
2018-12-13T11:52:21.992Z,5.50
2018-12-13T11:53:21.989Z,5.00
2018-12-13T11:54:21.952Z,5.40
2018-12-13T11:55:21.944Z,5.10
2018-12-13T11:56:21.936Z,5.30
2018-12-13T11:57:21.940Z,5.30
2018-12-13T11:58:21.913Z,4.80
2018-12-13T11:59:21.901Z,5.10
2018-12-13T12:00:21.887Z,5.20
2018-12-13T12:01:21.885Z,5.30
2018-12-13T12:02:24.168Z,5.40
2018-12-13T12:03:21.856Z,5.20
2018-12-13T12:04:21.851Z,5.00
2018-12-13T12:05:21.837Z,5.20
2018-12-13T12:06:21.832Z,5.20
2018-12-13T12:07:21.832Z,4.70
2018-12-13T12:08:21.807Z,4.80
2018-12-13T12:09:21.795Z,5.10
2018-12-13T12:10:21.783Z,5.20
2018-12-13T12:11:21.787Z,4.90
2018-12-13T12:12:21.785Z,4.90
2018-12-13T12:13:21.757Z,5.10
2018-12-13T12:14:21.745Z,5.10
2018-12-13T12:15:21.747Z,4.70
2018-12-13T12:16:21.725Z,4.60
2018-12-13T12:17:21.727Z,4.70
2018-12-13T12:18:21.702Z,4.80
2018-12-13T12:19:21.691Z,5.20
2018-12-13T12:20:21.682Z,5.10
2018-12-13T12:21:21.684Z,5.00
2018-12-13T12:22:21.679Z,5.50
2018-12-13T12:23:21.651Z,5.50
2018-12-13T12:24:21.646Z,5.20
2018-12-13T12:25:21.629Z,5.50
2018-12-13T12:26:21.617Z,5.60
2018-12-13T12:27:21.626Z,5.20
2018-12-13T12:28:21.597Z,5.40
2018-12-13T12:29:21.583Z,5.10
2018-12-13T12:30:21.574Z,5.60
2018-12-13T12:31:21.571Z,4.90
2018-12-13T12:32:21.574Z,4.90
2018-12-13T12:33:21.547Z,5.10
2018-12-13T12:34:21.598Z,4.50
2018-12-13T12:35:21.535Z,5.30
2018-12-13T12:36:21.509Z,4.90
2018-12-13T12:37:21.526Z,4.80
2018-12-13T12:38:21.501Z,4.60
2018-12-13T12:39:21.482Z,4.90
2018-12-13T12:40:21.469Z,5.50
2018-12-13T12:41:21.460Z,4.40
2018-12-13T12:42:21.465Z,4.80
2018-12-13T12:43:21.435Z,4.90
2018-12-13T12:44:21.427Z,6.20
2018-12-13T12:45:21.416Z,6.00
2018-12-13T12:46:21.405Z,5.70
2018-12-13T12:47:21.411Z,5.20
2018-12-13T12:48:21.390Z,4.70
2018-12-13T12:49:21.376Z,5.30
2018-12-13T12:50:21.360Z,5.10
2018-12-13T12:51:21.357Z,5.20
2018-12-13T12:52:21.365Z,4.70
2018-12-13T12:53:21.331Z,5.30
2018-12-13T12:54:21.318Z,5.20
2018-12-13T12:55:21.307Z,5.20
2018-12-13T12:56:21.299Z,5.00
2018-12-13T12:57:21.305Z,5.10
2018-12-13T12:58:21.276Z,4.80
2018-12-13T12:59:21.270Z,4.60
2018-12-13T13:00:21.270Z,5.20
2018-12-13T13:01:21.245Z,4.80
2018-12-13T13:02:21.254Z,4.70
2018-12-13T13:03:21.231Z,5.00
2018-12-13T13:04:21.215Z,4.60
2018-12-13T13:05:21.201Z,5.00
2018-12-13T13:06:21.228Z,5.60
2018-12-13T13:07:21.198Z,5.30
2018-12-13T13:08:21.173Z,5.00
2018-12-13T13:09:24.953Z,4.90
2018-12-13T13:10:21.149Z,5.10
2018-12-13T13:11:21.139Z,4.90
2018-12-13T13:12:21.145Z,5.10
2018-12-13T13:13:21.120Z,5.10
2018-12-13T13:14:21.104Z,4.70
2018-12-13T13:15:21.099Z,6.30
2018-12-13T13:16:21.084Z,5.50
2018-12-13T13:17:21.113Z,5.30
2018-12-13T13:18:21.086Z,5.10
2018-12-13T13:19:21.059Z,4.80
2018-12-13T13:20:21.039Z,4.80
2018-12-13T13:21:21.041Z,5.40
2018-12-13T13:22:21.019Z,5.10
2018-12-13T13:23:21.028Z,4.40
2018-12-13T13:24:20.998Z,5.50
2018-12-13T13:25:20.990Z,5.20
2018-12-13T13:26:20.977Z,4.70
2018-12-13T13:27:20.968Z,4.60
2018-12-13T13:28:20.985Z,5.00
2018-12-13T13:29:20.947Z,5.20
2018-12-13T13:30:20.943Z,4.70
2018-12-13T13:31:20.929Z,5.10
2018-12-13T13:32:20.913Z,5.90
2018-12-13T13:33:20.922Z,5.00
2018-12-13T13:34:20.892Z,4.60
2018-12-13T13:35:20.880Z,5.40
2018-12-13T13:36:20.868Z,5.00
2018-12-13T13:37:20.864Z,4.50
2018-12-13T13:38:20.879Z,4.50
2018-12-13T13:39:20.839Z,4.40
2018-12-13T13:40:20.829Z,4.90
2018-12-13T13:41:20.824Z,4.40
2018-12-13T13:42:20.871Z,4.60
2018-12-13T13:43:20.814Z,4.60
2018-12-13T13:44:20.803Z,4.50
2018-12-13T13:45:20.787Z,4.70
2018-12-13T13:46:20.764Z,4.60
2018-12-13T13:47:20.751Z,4.60
2018-12-13T13:48:20.762Z,4.80
2018-12-13T13:49:20.738Z,4.50
2018-12-13T13:50:20.722Z,5.10
2018-12-13T13:51:20.718Z,4.80
2018-12-13T13:52:20.697Z,5.20
2018-12-13T13:53:20.741Z,4.60
2018-12-13T13:54:20.678Z,4.50
2018-12-13T13:55:20.666Z,4.30
2018-12-13T13:56:20.653Z,4.40
2018-12-13T13:57:20.647Z,4.20
2018-12-13T13:58:20.664Z,4.40
2018-12-13T13:59:20.625Z,4.00
2018-12-13T14:00:20.623Z,4.70
2018-12-13T14:01:20.601Z,4.20
2018-12-13T14:02:20.596Z,4.70
2018-12-13T14:03:20.604Z,5.10
2018-12-13T14:04:20.590Z,4.50
2018-12-13T14:05:20.563Z,4.80
2018-12-13T14:06:20.548Z,4.70
2018-12-13T14:07:20.538Z,4.60
2018-12-13T14:08:20.547Z,4.80
2018-12-13T14:09:20.532Z,4.70
2018-12-13T14:10:20.508Z,4.70
2018-12-13T14:11:20.499Z,4.50
2018-12-13T14:12:20.483Z,4.10
2018-12-13T14:13:20.496Z,4.60
2018-12-13T14:14:20.470Z,4.90
2018-12-13T14:15:20.463Z,4.30
2018-12-13T14:16:20.444Z,4.10
2018-12-13T14:17:20.431Z,4.50
2018-12-13T14:18:20.440Z,4.30
2018-12-13T14:19:20.704Z,3.80
2018-12-13T14:20:20.406Z,4.00
2018-12-13T14:21:20.405Z,4.00
2018-12-13T14:22:20.382Z,4.20
2018-12-13T14:23:20.389Z,4.00
2018-12-13T14:24:20.361Z,3.90
2018-12-13T14:25:20.356Z,4.30
2018-12-13T14:26:20.338Z,4.00
2018-12-13T14:27:20.334Z,3.80
2018-12-13T14:28:20.335Z,3.90
2018-12-13T14:29:20.314Z,3.90
2018-12-13T14:30:20.297Z,4.10
2018-12-13T14:31:20.281Z,3.80
2018-12-13T14:32:20.275Z,3.70
2018-12-13T14:33:20.317Z,3.80
2018-12-13T14:34:20.252Z,4.50
2018-12-13T14:35:20.241Z,3.90
2018-12-13T14:36:20.226Z,4.30
2018-12-13T14:37:20.217Z,3.60
2018-12-13T14:38:20.226Z,3.50
2018-12-13T14:39:20.205Z,4.10
2018-12-13T14:40:20.185Z,3.80
2018-12-13T14:41:20.174Z,4.00
2018-12-13T14:42:20.165Z,3.60
2018-12-13T14:43:20.178Z,4.20
2018-12-13T14:44:20.146Z,4.10
2018-12-13T14:45:20.136Z,3.50
2018-12-13T14:46:20.120Z,3.60
2018-12-13T14:47:20.109Z,3.80
2018-12-13T14:48:20.118Z,3.40
2018-12-13T14:49:20.090Z,3.80
2018-12-13T14:50:20.094Z,3.70
2018-12-13T14:51:20.078Z,3.40
2018-12-13T14:52:20.055Z,3.50
2018-12-13T14:53:20.074Z,3.80
2018-12-13T14:54:20.046Z,3.90
2018-12-13T14:55:20.025Z,3.90
2018-12-13T14:56:20.019Z,3.50
2018-12-13T14:57:20.005Z,3.50
2018-12-13T14:58:20.042Z,3.60
2018-12-13T14:59:19.985Z,3.60
2018-12-13T15:00:19.980Z,3.80
2018-12-13T15:01:19.969Z,3.80
2018-12-13T15:02:19.954Z,3.40
2018-12-13T15:03:19.962Z,4.10
2018-12-13T15:04:19.932Z,3.80
2018-12-13T15:05:19.922Z,4.10
2018-12-13T15:06:19.907Z,3.70
2018-12-13T15:07:19.896Z,3.90
2018-12-13T15:08:19.903Z,3.90
2018-12-13T15:09:19.878Z,40.80
2018-12-13T15:10:19.879Z,41.40
2018-12-13T15:11:19.857Z,50.00
2018-12-13T15:12:19.845Z,35.30
2018-12-13T15:13:19.859Z,61.80
2018-12-13T15:14:19.833Z,14.00
2018-12-13T15:15:19.816Z,5.80
2018-12-13T15:16:19.803Z,4.40
2018-12-13T15:17:19.798Z,4.00
2018-12-13T15:18:19.781Z,3.90
2018-12-13T15:19:19.802Z,3.70
2018-12-13T15:20:19.757Z,4.10
2018-12-13T15:21:19.846Z,3.80
2018-12-13T15:22:19.766Z,3.30
2018-12-13T15:23:20.086Z,3.70
2018-12-13T15:24:19.795Z,4.00
2018-12-13T15:25:19.727Z,4.60
2018-12-13T15:26:19.704Z,4.20
2018-12-13T15:27:19.681Z,4.20
2018-12-13T15:28:19.684Z,4.10
2018-12-13T15:29:20.596Z,4.30
2018-12-13T15:30:20.759Z,3.80
2018-12-13T15:31:19.747Z,4.10
2018-12-13T15:32:19.628Z,4.00
2018-12-13T15:33:19.781Z,3.80
2018-12-13T15:34:19.766Z,3.80
2018-12-13T15:35:19.625Z,3.80
2018-12-13T15:36:19.611Z,3.80
2018-12-13T15:37:19.653Z,4.30
2018-12-13T15:38:20.135Z,4.20
2018-12-13T15:39:19.584Z,3.40
2018-12-13T15:40:19.618Z,3.90
2018-12-13T15:41:19.735Z,4.40
2018-12-13T15:42:19.544Z,3.90
2018-12-13T15:43:19.610Z,4.10
2018-12-13T15:44:22.768Z,3.90
2018-12-13T15:45:19.497Z,3.90
2018-12-13T15:46:19.495Z,3.60
2018-12-13T15:47:19.468Z,3.90
2018-12-13T15:48:19.469Z,4.00
2018-12-13T15:49:19.492Z,3.80
2018-12-13T15:50:19.451Z,3.50
2018-12-13T15:51:19.425Z,3.50
2018-12-13T15:52:19.415Z,3.90
2018-12-13T15:53:19.405Z,3.70
2018-12-13T15:54:19.453Z,3.90
2018-12-13T15:55:19.467Z,3.60
2018-12-13T15:56:19.394Z,3.60
2018-12-13T15:57:19.398Z,4.00
2018-12-13T15:58:19.354Z,3.80
2018-12-13T15:59:19.357Z,3.70
2018-12-13T16:00:19.330Z,3.80
2018-12-13T16:01:19.337Z,3.80
2018-12-13T16:02:19.309Z,4.40
2018-12-13T16:03:19.304Z,3.80
2018-12-13T16:04:19.304Z,3.80
2018-12-13T16:05:19.276Z,4.20
2018-12-13T16:06:19.273Z,4.30
2018-12-13T16:07:19.257Z,4.40
2018-12-13T16:08:19.250Z,4.10
2018-12-13T16:09:19.250Z,3.80
2018-12-13T16:10:19.244Z,4.20
2018-12-13T16:11:19.212Z,4.00
2018-12-13T16:12:19.202Z,3.70
2018-12-13T16:13:19.196Z,4.30
2018-12-13T16:14:19.195Z,3.80
2018-12-13T16:15:19.167Z,3.60
2018-12-13T16:16:19.158Z,3.80
2018-12-13T16:17:19.149Z,4.00
2018-12-13T16:18:19.184Z,3.80
2018-12-13T16:19:19.146Z,3.70
2018-12-13T16:20:19.117Z,3.80
2018-12-13T16:21:19.104Z,4.00
2018-12-13T16:22:19.112Z,9.50
2018-12-13T16:23:19.085Z,19.10
2018-12-13T16:24:19.091Z,88.60
2018-12-13T16:25:19.068Z,20.10
2018-12-13T16:26:19.049Z,8.70
2018-12-13T16:27:19.062Z,4.90
2018-12-13T16:28:19.030Z,4.40
2018-12-13T16:29:19.036Z,3.90
2018-12-13T16:30:19.009Z,3.90
2018-12-13T16:31:19.077Z,4.00
2018-12-13T16:32:18.993Z,3.80
2018-12-13T16:33:18.975Z,4.00
2018-12-13T16:34:18.985Z,4.30
2018-12-13T16:35:18.956Z,4.20
2018-12-13T16:36:18.945Z,4.40
2018-12-13T16:37:18.931Z,3.90
2018-12-13T16:38:18.923Z,3.90
2018-12-13T16:39:18.930Z,4.00
2018-12-13T16:40:18.899Z,4.30
2018-12-13T16:41:18.888Z,4.50
2018-12-13T16:42:18.898Z,4.20
2018-12-13T16:43:18.871Z,3.90
2018-12-13T16:44:18.877Z,4.10
2018-12-13T16:45:18.848Z,4.60
2018-12-13T16:46:18.838Z,4.50
2018-12-13T16:47:18.823Z,4.90
2018-12-13T16:48:18.820Z,4.10
2018-12-13T16:49:18.828Z,4.40
2018-12-13T16:50:18.802Z,4.40
2018-12-13T16:51:18.805Z,4.30
2018-12-13T16:52:18.769Z,4.60
2018-12-13T16:53:18.763Z,4.40
2018-12-13T16:54:18.768Z,4.70
2018-12-13T16:55:18.738Z,5.10
2018-12-13T16:56:18.733Z,5.10
2018-12-13T16:57:18.729Z,4.50
2018-12-13T16:58:18.708Z,4.10
2018-12-13T16:59:18.732Z,4.60
2018-12-13T17:00:18.686Z,4.80
2018-12-13T17:01:18.675Z,4.20
2018-12-13T17:02:18.664Z,4.80
2018-12-13T17:03:18.651Z,5.30
2018-12-13T17:04:18.660Z,5.00
2018-12-13T17:05:18.631Z,4.80
2018-12-13T17:06:18.627Z,4.20
2018-12-13T17:07:18.609Z,4.80
2018-12-13T17:08:18.598Z,4.20
2018-12-13T17:09:18.657Z,4.60
2018-12-13T17:10:18.577Z,4.90
2018-12-13T17:11:18.566Z,4.90
2018-12-13T17:12:18.555Z,4.80
2018-12-13T17:13:18.543Z,4.70
2018-12-13T17:14:18.537Z,5.10
2018-12-13T17:15:18.545Z,5.10
2018-12-13T17:16:18.528Z,4.60
2018-12-13T17:17:18.506Z,5.10
2018-12-13T17:18:18.491Z,4.90
2018-12-13T17:19:18.482Z,4.60
2018-12-13T17:20:18.492Z,4.50
2018-12-13T17:21:18.468Z,4.90
2018-12-13T17:22:18.487Z,4.70
2018-12-13T17:23:18.454Z,4.50
2018-12-13T17:24:18.429Z,4.30
2018-12-13T17:25:18.436Z,4.20
2018-12-13T17:26:18.418Z,4.50
2018-12-13T17:27:18.441Z,4.30
2018-12-13T17:28:18.422Z,4.70
2018-12-13T17:29:18.374Z,4.60
2018-12-13T17:30:18.382Z,4.80
2018-12-13T17:31:18.355Z,16.80
2018-12-13T17:32:18.345Z,20.70
2018-12-13T17:33:18.359Z,26.60
2018-12-13T17:34:18.329Z,31.20
2018-12-13T17:35:18.328Z,8.00
2018-12-13T17:36:18.299Z,4.80
2018-12-13T17:37:18.290Z,6.40
2018-12-13T17:38:18.282Z,5.20
2018-12-13T17:39:18.273Z,6.30
2018-12-13T17:40:23.020Z,5.80
2018-12-13T17:41:19.255Z,5.10
2018-12-13T17:42:18.236Z,5.20
2018-12-13T17:43:18.288Z,4.90
2018-12-13T17:44:18.236Z,4.60
2018-12-13T17:45:18.224Z,5.30
2018-12-13T17:46:18.191Z,4.70
2018-12-13T17:47:18.182Z,5.40
2018-12-13T17:48:18.167Z,5.10
2018-12-13T17:49:18.159Z,5.20
2018-12-13T17:50:18.175Z,5.30
2018-12-13T17:51:18.135Z,4.90
2018-12-13T17:52:18.123Z,5.40
2018-12-13T17:53:18.114Z,5.30
2018-12-13T17:54:18.103Z,5.20
2018-12-13T17:55:18.113Z,5.60
2018-12-13T17:56:18.093Z,5.10
2018-12-13T17:57:18.074Z,5.10
2018-12-13T17:58:18.060Z,5.70
2018-12-13T17:59:18.047Z,5.40
2018-12-13T18:00:18.058Z,5.20
2018-12-13T18:01:18.028Z,5.50
2018-12-13T18:02:18.021Z,5.50
2018-12-13T18:03:18.005Z,5.00
2018-12-13T18:04:17.996Z,5.40
2018-12-13T18:05:18.015Z,5.50
2018-12-13T18:06:17.977Z,4.90
2018-12-13T18:07:17.970Z,5.10
2018-12-13T18:08:17.967Z,5.40
2018-12-13T18:09:17.942Z,5.10
2018-12-13T18:10:17.955Z,5.60
2018-12-13T18:11:17.920Z,5.30
2018-12-13T18:12:17.912Z,5.60
2018-12-13T18:13:17.898Z,5.50
2018-12-13T18:14:17.893Z,5.20
2018-12-13T18:15:17.897Z,6.00
2018-12-13T18:16:17.866Z,6.10
2018-12-13T18:17:17.856Z,5.50
2018-12-13T18:18:17.843Z,5.60
2018-12-13T18:19:17.840Z,5.50
2018-12-13T18:20:17.846Z,5.90